createdAt,value
2023-04-01T00:00:37.953Z,9.73
2023-04-01T00:03:06.203Z,9.00
2023-04-01T00:05:34.589Z,6.55
2023-04-01T00:08:04.156Z,8.52
2023-04-01T00:10:32.260Z,8.38
2023-04-01T00:13:02.867Z,7.57
2023-04-01T00:15:31.331Z,9.60
2023-04-01T00:17:59.952Z,8.95
2023-04-01T00:20:28.849Z,7.10
2023-04-01T00:22:57.120Z,12.32
2023-04-01T00:25:26.967Z,10.05
2023-04-01T00:27:55.158Z,6.32
2023-04-01T00:30:23.251Z,9.07
2023-04-01T00:32:53.976Z,8.10
2023-04-01T00:35:23.427Z,5.57
2023-04-01T00:37:51.850Z,10.07
2023-04-01T00:40:29.608Z,9.18
2023-04-01T00:42:57.768Z,10.43
2023-04-01T00:45:29.671Z,5.85
2023-04-01T00:48:00.923Z,8.25
2023-04-01T00:50:31.155Z,6.43
2023-04-01T00:53:01.052Z,6.68
2023-04-01T00:55:33.989Z,6.28
2023-04-01T00:58:04.061Z,7.45
2023-04-01T01:00:32.550Z,6.28
2023-04-01T01:03:00.889Z,5.53
2023-04-01T01:05:49.002Z,3.28
2023-04-01T01:08:28.692Z,3.78
2023-04-01T01:10:58.157Z,5.80
2023-04-01T01:13:35.379Z,5.10
2023-04-01T01:16:09.203Z,3.15
2023-04-01T01:18:41.973Z,3.53
2023-04-01T01:21:41.876Z,7.35
2023-04-01T01:24:49.435Z,6.45
2023-04-01T01:27:20.428Z,6.35
2023-04-01T01:30:21.264Z,5.20
2023-04-01T01:33:12.101Z,5.88
2023-04-01T01:35:44.553Z,4.78
2023-04-01T01:38:15.763Z,9.02
2023-04-01T01:40:47.026Z,7.15
2023-04-01T01:43:18.135Z,7.22
2023-04-01T01:45:50.794Z,6.18
2023-04-01T01:48:19.961Z,6.47
2023-04-01T01:50:50.658Z,8.63
2023-04-01T01:53:19.008Z,5.78
2023-04-01T01:55:48.735Z,5.57
2023-04-01T01:58:21.286Z,6.95
2023-04-01T02:00:54.687Z,6.32
2023-04-01T02:03:24.994Z,4.57
2023-04-01T02:05:57.114Z,4.93
2023-04-01T02:08:30.077Z,5.65
2023-04-01T02:11:01.134Z,1.92
2023-04-01T02:13:33.212Z,5.07
2023-04-01T02:16:05.872Z,3.58
2023-04-01T02:18:37.639Z,3.65
2023-04-01T02:21:08.914Z,4.40
2023-04-01T02:23:38.431Z,5.97
2023-04-01T02:26:09.055Z,4.30
2023-04-01T02:28:40.214Z,6.47
2023-04-01T02:31:10.895Z,6.82
2023-04-01T02:33:41.102Z,6.97
2023-04-01T02:36:14.468Z,11.02
2023-04-01T02:38:43.984Z,8.02
2023-04-01T02:41:12.466Z,8.82
2023-04-01T02:43:40.597Z,4.90
2023-04-01T02:46:08.889Z,8.07
2023-04-01T02:48:37.213Z,7.32
2023-04-01T02:51:05.944Z,6.18
2023-04-01T02:53:35.524Z,6.63
2023-04-01T02:56:03.660Z,7.18
2023-04-01T02:58:31.814Z,5.80
2023-04-01T03:00:59.983Z,6.13
2023-04-01T03:03:28.155Z,7.00
2023-04-01T03:05:57.371Z,4.18
2023-04-01T03:08:25.533Z,9.73
2023-04-01T03:10:55.059Z,6.00
2023-04-01T03:13:23.250Z,6.30
2023-04-01T03:15:51.385Z,6.85
2023-04-01T03:18:19.629Z,6.30
2023-04-01T03:20:47.902Z,3.85
2023-04-01T03:23:18.272Z,5.53
2023-04-01T03:25:46.360Z,5.90
2023-04-01T03:28:16.042Z,8.18
2023-04-01T03:30:44.331Z,3.85
2023-04-01T03:33:12.514Z,4.95
2023-04-01T03:35:40.629Z,4.13
2023-04-01T03:38:08.749Z,8.02
2023-04-01T03:40:38.338Z,5.70
2023-04-01T03:43:09.408Z,5.80
2023-04-01T03:45:45.269Z,7.88
2023-04-01T03:48:13.488Z,3.67
2023-04-01T03:50:41.610Z,5.95
2023-04-01T03:53:10.463Z,4.10
2023-04-01T03:55:39.499Z,6.53
2023-04-01T03:58:07.913Z,5.50
2023-04-01T04:00:36.645Z,2.88
2023-04-01T04:03:06.299Z,6.25
2023-04-01T04:05:34.648Z,3.85
2023-04-01T04:08:03.137Z,2.38
2023-04-01T04:10:31.536Z,4.07
2023-04-01T04:12:59.661Z,4.47
2023-04-01T04:15:27.815Z,3.92
2023-04-01T04:17:56.012Z,3.00
2023-04-01T04:20:25.627Z,2.67
2023-04-01T04:22:53.700Z,4.32
2023-04-01T04:25:21.799Z,3.58
2023-04-01T04:27:50.488Z,3.03
2023-04-01T04:30:18.900Z,4.28
2023-04-01T04:32:47.201Z,5.10
2023-04-01T04:35:15.575Z,3.17
2023-04-01T04:37:45.055Z,5.13
2023-04-01T04:40:13.473Z,4.53
2023-04-01T04:42:41.625Z,6.75
2023-04-01T04:45:10.199Z,3.33
2023-04-01T04:47:38.380Z,4.10
2023-04-01T04:50:07.789Z,7.20
2023-04-01T04:52:35.936Z,6.88
2023-04-01T04:55:06.263Z,7.15
2023-04-01T04:57:34.420Z,4.32
2023-04-01T05:00:02.574Z,6.40
2023-04-01T05:02:31.758Z,4.75
2023-04-01T05:04:59.940Z,7.25
2023-04-01T05:07:28.099Z,4.88
2023-04-01T05:09:56.275Z,7.13
2023-04-01T05:12:25.961Z,6.75
2023-04-01T05:14:54.114Z,5.97
2023-04-01T05:17:22.282Z,4.63
2023-04-01T05:19:50.467Z,6.50
2023-04-01T05:22:18.683Z,5.65
2023-04-01T05:24:46.780Z,2.83
2023-04-01T05:27:15.024Z,4.20
2023-04-01T05:29:44.563Z,7.05
2023-04-01T05:32:12.710Z,4.80
2023-04-01T05:34:40.901Z,5.88
2023-04-01T05:37:09.306Z,5.05
2023-04-01T05:39:39.515Z,4.70
2023-04-01T05:42:09.105Z,4.15
2023-04-01T05:44:37.608Z,4.15
2023-04-01T05:47:07.150Z,4.45
2023-04-01T05:49:36.181Z,4.47
2023-04-01T05:52:04.364Z,3.50
2023-04-01T05:54:32.482Z,2.35
2023-04-01T05:57:00.680Z,2.83
2023-04-01T05:59:28.846Z,1.70
2023-04-01T06:01:58.322Z,6.10
2023-04-01T06:04:35.002Z,5.00
2023-04-01T06:09:32.428Z,2.97
2023-04-01T06:12:26.579Z,3.03
2023-04-01T06:15:02.732Z,3.58
2023-04-01T06:17:54.476Z,2.28
2023-04-01T06:20:29.694Z,2.33
2023-04-01T06:23:17.312Z,3.00
2023-04-01T06:26:04.912Z,1.90
2023-04-01T06:28:58.703Z,1.75
2023-04-01T06:31:40.114Z,2.30
2023-04-01T06:34:24.038Z,2.28
2023-04-01T06:37:06.142Z,2.80
2023-04-01T06:39:45.838Z,2.45
2023-04-01T06:42:41.994Z,1.58
2023-04-01T06:45:20.693Z,3.65
2023-04-01T06:48:01.183Z,2.30
2023-04-01T06:50:34.517Z,4.53
2023-04-01T06:53:13.038Z,9.98
2023-04-01T06:55:47.015Z,1.23
2023-04-01T06:58:22.847Z,1.83
2023-04-01T07:00:54.254Z,4.35
2023-04-01T07:03:30.280Z,0.73
2023-04-01T07:06:04.382Z,2.42
2023-04-01T07:08:38.805Z,2.42
2023-04-01T07:11:08.412Z,4.45
2023-04-01T07:13:41.845Z,1.65
2023-04-01T07:16:16.964Z,1.40
2023-04-01T07:18:49.796Z,2.65
2023-04-01T07:21:28.771Z,1.85
2023-04-01T07:24:03.291Z,2.55
2023-04-01T07:26:31.615Z,1.25
2023-04-01T07:29:00.006Z,1.63
2023-04-01T07:31:44.196Z,1.88
2023-04-01T07:34:19.224Z,2.10
2023-04-01T07:36:51.018Z,2.67
2023-04-01T07:39:32.663Z,3.30
2023-04-01T07:42:07.515Z,1.85
2023-04-01T07:44:45.083Z,2.92
2023-04-01T07:47:27.805Z,2.05
2023-04-01T07:50:07.650Z,1.55
2023-04-01T07:52:41.921Z,1.50
2023-04-01T07:55:17.187Z,1.83
2023-04-01T07:57:51.869Z,1.83
2023-04-01T08:00:25.556Z,1.60
2023-04-01T08:03:08.378Z,3.13
2023-04-01T08:05:45.574Z,2.10
2023-04-01T08:08:20.892Z,3.30
2023-04-01T08:10:54.391Z,3.42
2023-04-01T08:13:34.364Z,3.20
2023-04-01T08:16:11.763Z,3.88
2023-04-01T08:18:48.571Z,1.77
2023-04-01T08:21:23.379Z,4.40
2023-04-01T08:23:54.993Z,2.60
2023-04-01T08:26:32.965Z,2.50
2023-04-01T08:29:05.998Z,3.45
2023-04-01T08:31:42.504Z,2.72
2023-04-01T08:34:17.545Z,3.55
2023-04-01T08:36:50.743Z,1.83
2023-04-01T08:39:25.659Z,1.63
2023-04-01T08:42:21.008Z,3.00
2023-04-01T08:45:40.437Z,2.47
2023-04-01T08:48:38.596Z,2.42
2023-04-01T08:51:20.808Z,1.75
2023-04-01T08:54:07.202Z,3.55
2023-04-01T08:56:42.346Z,5.70
2023-04-01T08:59:19.413Z,1.90
2023-04-01T09:02:00.686Z,3.92
2023-04-01T09:04:48.823Z,2.80
2023-04-01T09:07:36.096Z,1.35
2023-04-01T09:10:27.753Z,1.33
2023-04-01T09:13:22.280Z,2.13
2023-04-01T09:16:15.437Z,1.23
2023-04-01T09:19:09.940Z,1.33
2023-04-01T09:22:07.873Z,1.40
2023-04-01T09:25:03.869Z,1.65
2023-04-01T09:27:43.620Z,2.28
2023-04-01T09:30:49.778Z,1.40
2023-04-01T09:33:53.278Z,2.20
2023-04-01T09:36:38.142Z,1.88
2023-04-01T09:39:32.429Z,3.40
2023-04-01T09:42:15.833Z,1.80
2023-04-01T09:44:48.992Z,1.63
2023-04-01T09:47:30.352Z,3.72
2023-04-01T09:50:17.518Z,1.23
2023-04-01T09:52:52.191Z,0.85
2023-04-01T09:55:25.372Z,1.40
2023-04-01T09:58:16.433Z,1.52
2023-04-01T10:01:15.030Z,2.70
2023-04-01T10:04:10.589Z,2.75
2023-04-01T10:07:17.348Z,2.15
2023-04-01T10:12:50.395Z,1.80
2023-04-01T10:15:53.264Z,1.92
2023-04-01T10:18:57.349Z,2.58
2023-04-01T10:21:51.108Z,3.88
2023-04-01T10:25:06.437Z,3.65
2023-04-01T10:28:00.694Z,5.57
2023-04-01T10:31:06.214Z,7.05
2023-04-01T10:34:19.665Z,6.80
2023-04-01T10:36:54.655Z,5.88
2023-04-01T10:39:50.558Z,6.00
2023-04-01T10:43:00.459Z,4.63
2023-04-01T10:46:03.223Z,10.10
2023-04-01T10:49:11.798Z,7.97
2023-04-01T10:52:10.259Z,10.73
2023-04-01T10:55:02.552Z,6.40
2023-04-01T10:57:47.384Z,11.98
2023-04-01T11:00:30.883Z,3.38
2023-04-01T11:03:39.568Z,9.38
2023-04-01T11:06:40.812Z,8.20
2023-04-01T11:10:05.744Z,9.52
2023-04-01T11:13:04.380Z,6.85
2023-04-01T11:15:57.994Z,7.50
2023-04-01T11:19:05.693Z,4.70
2023-04-01T11:21:58.576Z,6.82
2023-04-01T11:24:47.322Z,7.65
2023-04-01T11:27:32.728Z,6.20
2023-04-01T11:30:10.062Z,6.10
2023-04-01T11:32:49.718Z,3.47
2023-04-01T11:36:01.582Z,4.35
2023-04-01T11:38:44.309Z,4.28
2023-04-01T11:41:26.352Z,4.82
2023-04-01T11:44:09.886Z,3.45
2023-04-01T11:46:49.069Z,4.72
2023-04-01T11:49:35.612Z,4.47
2023-04-01T11:52:17.465Z,5.78
2023-04-01T11:54:58.450Z,4.80
2023-04-01T11:57:45.465Z,4.15
2023-04-01T12:00:41.334Z,6.03
2023-04-01T12:03:37.119Z,6.95
2023-04-01T12:06:10.550Z,7.75
2023-04-01T12:08:54.452Z,6.97
2023-04-01T12:11:28.637Z,6.15
2023-04-01T12:14:07.384Z,6.30
2023-04-01T12:16:53.245Z,6.20
2023-04-01T12:22:09.788Z,5.97
2023-04-01T12:24:49.929Z,6.03
2023-04-01T12:27:32.011Z,4.57
2023-04-01T12:30:35.945Z,5.30
2023-04-01T12:33:22.674Z,4.43
2023-04-01T12:36:02.875Z,6.80
2023-04-01T12:38:40.421Z,3.42
2023-04-01T12:41:22.982Z,5.43
2023-04-01T12:44:25.504Z,4.13
2023-04-01T12:47:13.374Z,5.18
2023-04-01T12:50:14.367Z,6.20
2023-04-01T12:52:56.466Z,6.43
2023-04-01T12:55:38.511Z,2.92
2023-04-01T12:58:43.612Z,3.80
2023-04-01T13:02:02.591Z,4.25
2023-04-01T13:04:54.277Z,5.88
2023-04-01T13:07:44.560Z,3.08
2023-04-01T13:10:22.684Z,4.03
2023-04-01T13:13:18.524Z,4.32
2023-04-01T13:15:53.910Z,3.47
2023-04-01T13:21:04.676Z,2.72
2023-04-01T13:23:48.541Z,4.43
2023-04-01T13:26:24.496Z,2.10
2023-04-01T13:29:00.309Z,1.75
2023-04-01T13:31:40.415Z,1.40
2023-04-01T13:34:33.022Z,3.08
2023-04-01T13:37:16.756Z,1.60
2023-04-01T13:39:59.394Z,2.13
2023-04-01T13:42:31.455Z,4.05
2023-04-01T13:45:04.677Z,2.75
2023-04-01T13:48:01.321Z,2.92
2023-04-01T13:50:42.202Z,1.75
2023-04-01T13:53:52.871Z,1.88
2023-04-01T13:56:35.463Z,1.67
2023-04-01T13:59:21.699Z,2.28
2023-04-01T14:01:58.644Z,1.40
2023-04-01T14:04:52.069Z,1.02
2023-04-01T14:07:49.065Z,2.80
2023-04-01T14:10:25.590Z,2.60
2023-04-01T14:13:03.188Z,1.60
2023-04-01T14:15:52.740Z,1.65
2023-04-01T14:18:55.358Z,3.35
2023-04-01T14:21:34.691Z,2.42
2023-04-01T14:24:24.950Z,3.13
2023-04-01T14:27:25.946Z,1.88
2023-04-01T14:30:22.618Z,2.88
2023-04-01T14:32:58.493Z,1.95
2023-04-01T14:35:38.006Z,2.90
2023-04-01T14:38:33.034Z,2.92
2023-04-01T14:41:15.542Z,2.53
2023-04-01T14:43:56.599Z,2.38
2023-04-01T14:46:52.227Z,2.28
2023-04-01T14:49:24.551Z,1.52
2023-04-01T14:51:54.475Z,1.80
2023-04-01T14:54:32.867Z,5.00
2023-04-01T14:57:13.385Z,5.22
2023-04-01T14:59:43.824Z,4.05
2023-04-01T15:02:35.444Z,3.05
2023-04-01T15:05:16.275Z,2.33
2023-04-01T15:08:04.986Z,1.95
2023-04-01T15:11:11.827Z,2.15
2023-04-01T15:14:13.835Z,2.38
2023-04-01T15:16:50.152Z,1.50
2023-04-01T15:19:29.179Z,2.28
2023-04-01T15:22:19.684Z,1.35
2023-04-01T15:24:53.273Z,2.08
2023-04-01T15:27:37.858Z,1.00
2023-04-01T15:30:33.686Z,3.08
2023-04-01T15:33:26.938Z,1.38
2023-04-01T15:36:04.737Z,1.80
2023-04-01T15:38:38.962Z,1.83
2023-04-01T15:41:17.416Z,1.90
2023-04-01T15:43:49.666Z,2.55
2023-04-01T15:46:43.488Z,2.78
2023-04-01T15:49:29.341Z,1.92
2023-04-01T15:54:47.693Z,2.45
2023-04-01T15:57:31.551Z,2.65
2023-04-01T16:00:13.613Z,3.85
2023-04-01T16:02:50.196Z,4.53
2023-04-01T16:05:42.528Z,1.92
2023-04-01T16:08:31.593Z,4.68
2023-04-01T16:11:10.982Z,4.20
2023-04-01T16:13:50.499Z,2.90
2023-04-01T16:16:32.035Z,2.33
2023-04-01T16:19:13.516Z,2.38
2023-04-01T16:21:48.328Z,2.50
2023-04-01T16:24:22.168Z,1.63
2023-04-01T16:26:55.782Z,2.10
2023-04-01T16:29:32.979Z,1.02
2023-04-01T16:32:16.515Z,3.03
2023-04-01T16:34:56.780Z,1.30
2023-04-01T16:37:35.355Z,3.75
2023-04-01T16:40:17.221Z,3.72
2023-04-01T16:42:52.232Z,2.25
2023-04-01T16:45:33.255Z,1.10
2023-04-01T16:48:08.728Z,2.13
2023-04-01T16:53:21.130Z,2.38
2023-04-01T16:55:54.270Z,2.97
2023-04-01T16:58:27.333Z,2.78
2023-04-01T17:01:01.337Z,3.65
2023-04-01T17:03:34.138Z,2.05
2023-04-01T17:06:16.213Z,1.73
2023-04-01T17:08:59.915Z,1.73
2023-04-01T17:11:33.314Z,2.67
2023-04-01T17:14:11.562Z,2.08
2023-04-01T17:16:59.180Z,2.35
2023-04-01T17:19:42.684Z,2.25
2023-04-01T17:22:28.087Z,2.13
2023-04-01T17:25:10.271Z,1.35
2023-04-01T17:27:46.358Z,1.83
2023-04-01T17:30:31.206Z,1.90
2023-04-01T17:33:27.753Z,2.53
2023-04-01T17:36:01.593Z,2.10
2023-04-01T17:38:52.048Z,4.70
2023-04-01T17:41:31.050Z,1.88
2023-04-01T17:44:13.758Z,2.08
2023-04-01T17:46:58.953Z,4.97
2023-04-01T17:49:33.242Z,2.60
2023-04-01T17:52:07.344Z,2.17
2023-04-01T17:54:42.284Z,3.97
2023-04-01T17:57:39.955Z,3.10
2023-04-01T18:00:25.559Z,3.95
2023-04-01T18:05:47.501Z,2.40
2023-04-01T18:08:20.357Z,2.50
2023-04-01T18:11:02.408Z,2.78
2023-04-01T18:14:03.240Z,3.17
2023-04-01T18:16:43.482Z,2.33
2023-04-01T18:19:22.745Z,3.13
2023-04-01T18:21:54.568Z,6.88
2023-04-01T18:24:30.558Z,6.03
2023-04-01T18:27:06.672Z,7.50
2023-04-01T18:29:42.269Z,5.45
2023-04-01T18:32:17.588Z,3.97
2023-04-01T18:35:01.430Z,9.13
2023-04-01T18:37:34.875Z,3.72
2023-04-01T18:40:13.894Z,6.32
2023-04-01T18:42:55.260Z,6.03
2023-04-01T18:45:29.570Z,4.90
2023-04-01T18:48:11.163Z,4.85
2023-04-01T18:50:45.480Z,8.70
2023-04-01T18:53:23.140Z,9.20
2023-04-01T18:55:54.793Z,6.90
2023-04-01T18:58:34.041Z,8.70
2023-04-01T19:01:13.250Z,4.85
2023-04-01T19:03:47.200Z,8.60
2023-04-01T19:06:22.402Z,6.40
2023-04-01T19:08:50.796Z,8.40
2023-04-01T19:11:29.113Z,7.40
2023-04-01T19:14:07.538Z,9.88
2023-04-01T19:16:48.350Z,9.18
2023-04-01T19:19:31.455Z,11.07
2023-04-01T19:22:02.019Z,11.75
2023-04-01T19:25:13.576Z,12.25
2023-04-01T19:27:47.099Z,7.90
2023-04-01T19:30:34.270Z,14.50
2023-04-01T19:33:12.251Z,9.27
2023-04-01T19:35:47.206Z,8.52
2023-04-01T19:38:23.945Z,8.82
2023-04-01T19:40:58.706Z,10.13
2023-04-01T19:43:42.928Z,13.17
2023-04-01T19:46:20.630Z,10.00
2023-04-01T19:49:05.984Z,9.80
2023-04-01T19:51:39.648Z,11.68
2023-04-01T19:54:21.096Z,7.72
2023-04-01T19:56:56.214Z,8.88
2023-04-01T19:59:31.346Z,10.00
2023-04-01T20:02:17.002Z,9.18
2023-04-01T20:04:50.249Z,12.55
2023-04-01T20:07:25.872Z,9.52
2023-04-01T20:10:00.346Z,11.20
2023-04-01T20:12:43.634Z,7.38
2023-04-01T20:15:29.258Z,12.70
2023-04-01T20:18:00.862Z,8.13
2023-04-01T20:20:31.247Z,12.65
2023-04-01T20:23:30.211Z,11.50
2023-04-01T20:26:04.373Z,10.05
2023-04-01T20:28:40.209Z,11.10
2023-04-01T20:31:27.816Z,10.48
2023-04-01T20:34:25.337Z,12.98
2023-04-01T20:37:03.065Z,10.75
2023-04-01T20:40:01.676Z,14.77
2023-04-01T20:42:36.917Z,11.27
2023-04-01T20:45:19.300Z,10.70
2023-04-01T20:48:04.535Z,9.27
2023-04-01T20:50:40.687Z,11.68
2023-04-01T20:53:17.573Z,8.95
2023-04-01T20:56:17.702Z,7.55
2023-04-01T20:58:57.630Z,10.30
2023-04-01T21:01:37.486Z,9.18
2023-04-01T21:04:29.093Z,11.55
2023-04-01T21:07:13.401Z,10.52
2023-04-01T21:09:55.184Z,6.18
2023-04-01T21:12:32.885Z,10.85
2023-04-01T21:15:18.953Z,8.98
2023-04-01T21:18:00.511Z,8.43
2023-04-01T21:21:01.604Z,8.13
2023-04-01T21:23:47.148Z,7.38
2023-04-01T21:26:33.183Z,7.50
2023-04-01T21:29:39.671Z,5.68
2023-04-01T21:32:22.156Z,11.02
2023-04-01T21:35:02.171Z,7.30
2023-04-01T21:37:52.126Z,5.97
2023-04-01T21:40:52.216Z,8.32
2023-04-01T21:43:44.420Z,6.88
2023-04-01T21:46:45.744Z,8.82
2023-04-01T21:49:41.364Z,10.52
2023-04-01T21:52:35.564Z,9.88
2023-04-01T21:55:34.477Z,4.18
2023-04-01T21:58:35.667Z,9.32
2023-04-01T22:01:19.098Z,10.52
2023-04-01T22:04:10.744Z,15.85
2023-04-01T22:06:43.160Z,11.35
2023-04-01T22:09:20.805Z,11.32
2023-04-01T22:11:57.439Z,11.95
2023-04-01T22:14:34.462Z,14.13
2023-04-01T22:17:09.568Z,11.57
2023-04-01T22:19:47.530Z,8.25
2023-04-01T22:22:22.092Z,12.65
2023-04-01T22:25:00.813Z,13.50
2023-04-01T22:27:33.283Z,11.40
2023-04-01T22:30:11.345Z,10.02
2023-04-01T22:32:45.670Z,12.65
2023-04-01T22:35:25.512Z,11.13
2023-04-01T22:38:05.082Z,9.65
2023-04-01T22:40:40.824Z,10.25
2023-04-01T22:43:13.778Z,12.23
2023-04-01T22:45:57.170Z,8.07
2023-04-01T22:48:33.880Z,11.85
2023-04-01T22:51:08.766Z,7.32
2023-04-01T22:53:56.956Z,11.57
2023-04-01T22:56:31.318Z,7.55
2023-04-01T22:59:06.412Z,8.48
2023-04-01T23:01:41.259Z,9.60
2023-04-01T23:04:14.562Z,11.00
2023-04-01T23:06:46.565Z,8.32
2023-04-01T23:09:17.871Z,10.35
2023-04-01T23:11:52.734Z,11.70
2023-04-01T23:14:41.660Z,11.05
2023-04-01T23:17:26.968Z,10.20
2023-04-01T23:20:02.153Z,11.25
2023-04-01T23:22:34.387Z,14.90
2023-04-01T23:25:19.247Z,17.85
2023-04-01T23:27:53.129Z,11.93
2023-04-01T23:30:48.919Z,12.98
2023-04-01T23:33:24.587Z,3.15
2023-04-01T23:35:54.938Z,7.82
2023-04-01T23:38:25.179Z,10.32
2023-04-01T23:40:55.589Z,9.95
2023-04-01T23:43:27.796Z,12.50
2023-04-01T23:45:57.451Z,6.28
2023-04-01T23:48:32.954Z,7.53
2023-04-01T23:53:32.484Z,9.05
2023-04-01T23:56:01.341Z,7.15
2023-04-01T23:58:43.854Z,8.23
